Timeline UpdatesTrip UpdatesNews PostsPvt Posts♥♥Travel TipsAdmin PostsConv PostsFollowed PostsChat RequestsBlog PostsPNR Posts

Disclaimer
Search
 
 
Wed Nov 26, 2014 22:58:45 ISTHomeTrainsΣChainsAtlasPNRForumGalleryNewsFAQTripsMembersLoginFeedback
Latest...
.
Wed Feb 26, 2014 (11:14AM)
⇐ Return Journey: Train# 11077

11078/Jhelum Express

Time-Table HAS CHANGED.
Sep 09 2014 (11:25PM)
Change Departure Station:
Change Arrival Station:
Post a Train Travel TipPost a Train Travel Tip **new
Post a Comment/Question/Picture/VideoPost a Comment/Question/Picture/Video
Inaugural Run
Sat Jan 01, 1977
Pantry/Catering
✓ Pantry Car Avbl
✓ Catering Avbl
Loco/Rake Reversals
DD/Daund Junction (7);
RSA - Rake Sharing
No RSA.
Rake/Coach Composition
Loco, LDS, UR, A1, A2, B1, B2, B3, B4,B5 S1, PC, S2, S3, S4, S5, S6, S7, S8, S9, S10, UR, UR, MLTY (JAT-DD);
Loco
JAT-LDH=>LDH WDM3A/ TWIN LDH WDM3A LDH-MMR=> GZB/BSL WAP-4 MMR-PUNE=>PUNE WDP4D
News    PNR    Forum    Time-Table    Availability    Fare Chart    Map    Arr/Dep History    Trips    Gallery    ΣChains    X/O    Timeline    
Travel Time: 28h 55m    36 halts    Distance: 1599 km    Avg Speed: 55 km/hr
Type: Mail/Express
Zone: CR/Central
Departs @ 10:15
Platform# 4
SMTWTFS
New Delhi/NDLS 
Arrives @ 15:10 +1 night
Platform# 3
SMTWTFS
Pune Junction/PUNE 

36 halts. 217 intermediate Stations between New Delhi and Pune Junction

Show ALL intermediate Stations  Show Old Time-Table

#TrkCodeStation NameX/OArrivesAvgDepartsAvgHaltPFDay#KmSpeedElevZoneAddress
1/--/JATJammu Tawi (3)  -21:45-11-576.771337mNRJammu 180002, Jammu and Kashmir
2/--/VJPJVijaypur Jammu (2)  22:03-22:05-2m21-555.546353mNRdistt. samba, Jammu and Kashmir
3/--/SMBXSamba (2)  22:20-22:22-2m11-544.163365mNRDist. Samba, Jammu and Kashmir
4/--/HRNRHira Nagar (2)  22:36-22:38-2m21-529.364380mNRHiranagar, Jammu and Kashmir
5/--/KTHUKathua (2)  23:05-23:07-2m21-500.442396mNRdistt. kathua, Jammu and Kashmir
6/--/PTKCPathankot Cantt (3)  23:40-23:45-5m11-477.357328mNRPathankot By Pass Ph:0186-2251594, Punjab
7/--/MEXMukerian (3)X  00:27-00:29-2m12-437.553257mNRMukerian distt. hosiharpur, Punjab
8/--/DZADasuya (2)  00:46-00:48-2m12-422.466251mNRDasuya distt. hoshiarpur, Punjab
9/--/JRCJalandhar Cantt. Junction (3)X  01:40-01:45-5m32-364.854239mNRNear Rama Mandi, Punjab
10/==/PGWPhagwara Junction (3)X  02:03-02:05-2m12-348.539245mNRPhagwara, Punjab
11/==/LDHLudhiana Junction (7)X02:50 03:00-03:00 03:10-10m52-312.849246mNRLudhiana 141001, Punjab
12/==/KNNKhanna (3)X  03:57 04:02-03:59 04:04-2m22-270.067269mNRNH 1, Punjab
13/==/SIRSirhind Junction (3)XO  04:15 04:20-04:27 04:32-12m22-252.188271mNRSirhind, Punjab
14/==/RPJRajpura Junction (3)XO  04:49-04:51-2m22-227.359272mNRNH-1., Punjab
15/==/UBCAmbala City (3)X  05:12-05:14-2m12-206.817273mNRNH-1, Haryana
16/==/UMBAmbala Cantt. Junction (7)X  05:40-05:50-10m22-199.263278mNRAmbala 133001, Haryana
17/==/SHDMShahbad Markanda (2)X  06:09-06:11-2m12-179.358267mNRShahabad Markanda, Haryana
18/==/KKDEKurukshetra Junction (3)  06:34-06:36-2m22-157.170260mNRKurukshetra, Haryana
19/==/TRRTaraori (2)X  06:54-06:56-2m--2-136.152255mNRTaraori, Haryana
20/==/KUNKarnal (3)X  07:10-07:12-2m12-124.066253mNRKarnal, Haryana
21/==/GRAGharaunda (2)  07:28-07:30-2m--2-106.660244mNRGharaunda, Haryana
22/==/PNPPanipat Junction (5)X  07:47-07:49-2m22-89.673235mNRPanipat, Haryana
23/==/SMKSamalkha (3)X08:02 08:03-08:04-2 1m--2-72.657229mNRSamalkha, Haryana
24/==/GNUGanaur  08:16 08:17-08:18-2 1m--2-60.460222mNRGanaur, Haryana
25/==/SNPSonipat (3)X  08:33 08:34-08:35-2 1m12-44.557225mNRSonipat, Haryana
26/==/NURNarela (2)X  08:53-08:55-2m--2-27.441222mNRNarela, Delhi NCT
27/==/SZMDelhi Sabzi Mandi (2)  09:28 09:29-09:30-2 1m--2-4.110220mNRGulabi Bagh, Delhi NCT
28/==/NDLSNew Delhi (16)»  10:00 09:55-10:20 10:15-20m420.060215mNRNew Delhi 110002, Delhi NCT
29/==/FDBFaridabad (4)X  10:51 10:43-10:53 10:45-2m3228.259206mNRold Faridabad, Haryana
30/==/MTJMathura Junction (10)  12:40-12:45-5m12141.376179mNCRMathura, Uttar Pradesh
31/==/RKMRaja Ki Mandi (4)X  13:24-13:26-2m12191.010170mNCRAgra, Uttar Pradesh
32/==/AGCAgra Cantt. (6)X  13:50-13:55-5m12195.090174mNCRAgra, Uttar Pradesh
33/==/DHODholpur Junction (3)X  14:30-14:32-2m22247.670177mNCRDholpur, Rajasthan
34/==/MRAMorena (3)  14:55-14:57-2m12274.575176mNCRMorena, Madhya Pradesh
35/==/GWLGwalior Junction (4)X  15:28-15:33-5m12313.077214mNCRGwalior, Madhya Pradesh
36/==/DBADabra (3)X  16:06-16:08-2m22355.365 NCRDabra(District-Gwalior), Madhya Pradesh
37/==/DAADatia (2)X  16:34 16:36-16:36 16:38-2m12385.738264mNCRDatia, Madhya Pradesh
38/==/JHSJhansi Junction (7)X  17:13 17:18-17:23-10 5m32410.861259mNCRJhansi, Uttar Pradesh
39/==/BABBabina (3)  17:46 17:48-17:48 17:50-2m22436.293285mNCRBabina, Uttar Pradesh
40/==/LARLalitpur (3)X  18:30 18:32-18:32 18:34-2m12501.131373mNCRLalitpur, Uttar Pradesh
41/==/DUADhaura (3)X  19:09 19:28-19:11 19:30-2m--2529.459407mNCRDhaura Tanda, Madhya Pradesh
42/==/BINABina Junction (5)X  19:50 20:05-19:55 20:10-5m32564.086414mWCRJn Pt - KATNI/GUNA/ BPL/JHS, Madhya Pradesh
43/==/BAQGanj Basoda (4)  20:27 20:42-20:29 20:44-2m22609.784 WCRVidisha, Madhya Pradesh
44/==/BHSVidisha (3)X  20:48 21:12-20:50 21:14-2m22649.053 WCRVidisha, Madhya Pradesh
45/==/BPLBhopal Junction (6)X  22:00 22:15-22:05 22:20-5m12702.538497mWCRBhopal, Madhya Pradesh
46/==/HBJBhopal HabibGanj (5)X  22:15 22:30-22:17 22:32-2m42708.870496mWCRHabibGanj, Madhya Pradesh
47/==/HBDHoshangabad (2)XO  23:15 23:30-23:17 23:32-2m22776.225308mWCRHoshangabad, Madhya Pradesh
48/==/ETItarsi Junction (7)X  00:01 00:15-00:05 00:20-4 5m33794.384329mWCRItarsi 461111, Madhya Pradesh
49/==/BPFBanapura (2)X  00:29 00:44-00:31 00:46-2m23827.782314mWCRBanapura, Madhya Pradesh
50/==/HDHarda (3)  01:02 01:17-01:04 01:19-2m23870.187289mWCRHarda, Madhya Pradesh
51/==/CAERChhanera (2)  01:48 02:02-01:50 02:04-2m23932.336283mWCRChhanera, Madhya Pradesh
52/==/KNWKhandwa Junction (5)O  03:20-03:25-5m23977.778310mCRKhandwa, Madhya Pradesh
53/==/BAUBurhanpur (2)  04:18-04:20-2m131046.673269mCRBurhanpur, Madhya Pradesh
54/==/BSLBhusaval Junction (8)X  05:05-05:15-10m531101.163208mCRBhusaval 425201, Maharashtra
55/==/JLJalgaon Junction (4)X  05:38-05:40-2m231125.2102213mCRJalgaon 425001, Maharashtra
56/==/PCPachora Junction (4)X  06:08-06:10-2m231172.996264mCRPachora 424201, Maharashtra
57/==/CSNChalisgaon Junction (3)  06:38-06:40-2m331217.790352mCRChalisgaon 424101, Maharashtra
58/==/NGNNandgaon (3)  07:08-07:10-2m231259.951476mCRNandgaon, Maharashtra
59/==/MMRManmad Junction (6)07:40-07:50-10m331285.331580mCRManmad 423104, Maharashtra
60/--/KPGKopargaon (2)X  09:13-09:15-2m131327.562508mCRKopargaon 423601, Maharashtra
61/--/BAPBelapur (2)X  09:58-10:00-2m231372.165541mCRShrirampur, Maharashtra
62/--/ANGAhmadnagar (2)X  11:02-11:05-3m131439.246650mCRAhmednagar 414001, Maharashtra
63%==%DDDaund Junction (7)X12:55-13:10-15m231523.436521mCRNew Daund Dist. Pune 413801, Maharashtra
64/==/URIUruli (2)X  13:48 14:29-13:50 14:30-2 1m131570.243553mCRDist. Pune 412202, Maharashtra
65/==/PUNEPune Junction (6)•  14:35 15:10--331598.9-556mCRPune 411001, Maharashtra
Scroll to Top
Scroll to Bottom